createdAt,value
2023-05-12T00:01:48.918Z,3.47
2023-05-12T00:03:53.660Z,3.80
2023-05-12T00:05:56.589Z,2.10
2023-05-12T00:08:00.543Z,2.90
2023-05-12T00:10:03.487Z,3.75
2023-05-12T00:12:06.612Z,2.67
2023-05-12T00:14:10.114Z,2.20
2023-05-12T00:16:13.460Z,3.67
2023-05-12T00:18:16.189Z,1.88
2023-05-12T00:20:19.116Z,2.53
2023-05-12T00:22:22.070Z,2.50
2023-05-12T00:24:26.193Z,2.63
2023-05-12T00:26:28.924Z,3.88
2023-05-12T00:28:31.874Z,2.33
2023-05-12T00:30:34.585Z,2.40
2023-05-12T00:32:37.479Z,3.60
2023-05-12T00:34:40.084Z,2.85
2023-05-12T00:36:42.662Z,2.50
2023-05-12T00:38:45.302Z,2.78
2023-05-12T00:40:49.347Z,2.13
2023-05-12T00:42:52.026Z,3.95
2023-05-12T00:44:54.607Z,3.03
2023-05-12T00:46:57.340Z,2.25
2023-05-12T00:49:00.046Z,2.13
2023-05-12T00:51:03.899Z,2.20
2023-05-12T00:53:07.636Z,2.90
2023-05-12T00:55:11.424Z,2.75
2023-05-12T00:57:15.597Z,5.22
2023-05-12T00:59:18.411Z,2.97
2023-05-12T01:01:21.308Z,1.88
2023-05-12T01:03:24.179Z,3.22
2023-05-12T01:05:29.062Z,3.03
2023-05-12T01:07:33.464Z,2.97
2023-05-12T01:09:36.529Z,3.42
2023-05-12T01:11:39.220Z,2.70
2023-05-12T01:13:43.264Z,2.65
2023-05-12T01:15:47.233Z,2.50
2023-05-12T01:17:53.487Z,2.88
2023-05-12T01:19:58.541Z,2.40
2023-05-12T01:22:01.416Z,2.53
2023-05-12T01:24:06.918Z,3.55
2023-05-12T01:26:11.417Z,2.40
2023-05-12T01:28:14.322Z,2.88
2023-05-12T01:30:20.319Z,2.75
2023-05-12T01:32:23.260Z,3.30
2023-05-12T01:34:26.664Z,2.33
2023-05-12T01:36:29.488Z,3.83
2023-05-12T01:38:32.444Z,2.58
2023-05-12T01:40:35.252Z,2.80
2023-05-12T01:42:40.686Z,2.92
2023-05-12T01:44:43.352Z,1.73
2023-05-12T01:46:46.012Z,5.72
2023-05-12T01:48:48.603Z,2.65
2023-05-12T01:50:51.345Z,1.85
2023-05-12T01:52:53.989Z,2.15
2023-05-12T01:54:56.714Z,1.90
2023-05-12T01:56:59.401Z,3.13
2023-05-12T01:59:03.532Z,1.58
2023-05-12T02:01:06.227Z,2.10
2023-05-12T02:03:09.014Z,3.95
2023-05-12T02:05:11.723Z,2.35
2023-05-12T02:07:15.622Z,2.50
2023-05-12T02:09:18.252Z,2.75
2023-05-12T02:11:21.107Z,3.10
2023-05-12T02:13:23.642Z,2.42
2023-05-12T02:15:27.595Z,2.53
2023-05-12T02:17:30.255Z,3.97
2023-05-12T02:19:33.074Z,2.33
2023-05-12T02:21:35.828Z,3.33
2023-05-12T02:23:38.566Z,3.33
2023-05-12T02:25:41.186Z,1.80
2023-05-12T02:27:45.047Z,3.50
2023-05-12T02:29:47.763Z,2.95
2023-05-12T02:31:51.817Z,2.85
2023-05-12T02:33:54.405Z,3.42
2023-05-12T02:35:57.177Z,2.80
2023-05-12T02:37:59.914Z,2.13
2023-05-12T02:40:02.636Z,3.40
2023-05-12T02:42:05.821Z,2.03
2023-05-12T02:44:08.573Z,4.20
2023-05-12T02:46:11.319Z,2.25
2023-05-12T02:48:15.334Z,2.72
2023-05-12T02:50:18.283Z,3.08
2023-05-12T02:52:22.186Z,3.50
2023-05-12T02:54:24.820Z,2.30
2023-05-12T02:56:27.574Z,2.22
2023-05-12T02:58:30.264Z,3.28
2023-05-12T03:00:33.064Z,2.85
2023-05-12T03:02:36.183Z,4.03
2023-05-12T03:04:40.251Z,3.10
2023-05-12T03:06:42.916Z,5.38
2023-05-12T03:08:45.650Z,4.03
2023-05-12T03:10:48.405Z,2.58
2023-05-12T03:12:50.996Z,3.88
2023-05-12T03:14:53.579Z,2.83
2023-05-12T03:16:56.282Z,2.67
2023-05-12T03:18:59.016Z,3.80
2023-05-12T03:21:03.573Z,2.95
2023-05-12T03:23:06.188Z,3.00
2023-05-12T03:25:10.317Z,3.65
2023-05-12T03:27:13.209Z,2.72
2023-05-12T03:29:15.855Z,2.83
2023-05-12T03:31:18.585Z,2.92
2023-05-12T03:33:21.492Z,3.45
2023-05-12T03:35:24.170Z,3.75
2023-05-12T03:37:28.163Z,3.95
2023-05-12T03:39:30.732Z,3.65
2023-05-12T03:41:33.607Z,3.35
2023-05-12T03:43:36.643Z,3.70
2023-05-12T03:45:39.217Z,2.40
2023-05-12T03:47:42.199Z,2.78
2023-05-12T03:49:45.024Z,3.30
2023-05-12T03:51:47.817Z,3.38
2023-05-12T03:53:51.960Z,3.28
2023-05-12T03:55:54.545Z,4.18
2023-05-12T03:57:57.194Z,2.42
2023-05-12T03:59:59.910Z,3.22
2023-05-12T04:02:02.716Z,3.85
2023-05-12T04:04:05.765Z,3.28
2023-05-12T04:06:08.610Z,3.85
2023-05-12T04:08:11.206Z,3.70
2023-05-12T04:10:15.225Z,3.53
2023-05-12T04:12:17.892Z,3.30
2023-05-12T04:14:26.476Z,3.83
2023-05-12T04:16:31.905Z,3.70
2023-05-12T04:18:35.795Z,5.78
2023-05-12T04:20:38.502Z,2.83
2023-05-12T04:22:41.118Z,3.50
2023-05-12T04:24:43.724Z,3.13
2023-05-12T04:26:47.693Z,2.38
2023-05-12T04:28:50.465Z,4.00
2023-05-12T04:30:53.094Z,2.75
2023-05-12T04:32:55.721Z,3.17
2023-05-12T04:34:58.734Z,4.53
2023-05-12T04:37:01.441Z,3.03
2023-05-12T04:39:04.379Z,3.20
2023-05-12T04:41:07.014Z,3.20
2023-05-12T04:44:00.058Z,3.95
2023-05-12T04:45:33.722Z,5.30
2023-05-12T04:47:36.369Z,4.55
2023-05-12T04:49:39.182Z,2.83
2023-05-12T04:51:42.950Z,3.47
2023-05-12T04:53:46.108Z,3.83
2023-05-12T04:55:50.045Z,3.92
2023-05-12T04:57:52.768Z,3.55
2023-05-12T04:59:58.432Z,5.45
2023-05-12T05:02:00.996Z,3.35
2023-05-12T05:04:03.760Z,3.38
2023-05-12T05:06:06.541Z,3.10
2023-05-12T05:08:09.233Z,3.42
2023-05-12T05:10:12.085Z,3.45
2023-05-12T05:12:14.742Z,4.97
2023-05-12T05:14:17.299Z,3.65
2023-05-12T05:16:21.313Z,4.10
2023-05-12T05:18:24.496Z,3.22
2023-05-12T05:20:29.299Z,3.83
2023-05-12T05:22:32.196Z,4.05
2023-05-12T05:24:34.771Z,3.30
2023-05-12T05:26:37.542Z,3.13
2023-05-12T05:28:40.746Z,3.20
2023-05-12T05:30:43.386Z,3.05
2023-05-12T05:32:47.487Z,2.75
2023-05-12T05:34:50.115Z,3.53
2023-05-12T05:36:52.754Z,4.03
2023-05-12T05:38:55.358Z,2.72
2023-05-12T05:40:58.173Z,4.63
2023-05-12T05:43:02.682Z,3.67
2023-05-12T05:45:06.115Z,4.35
2023-05-12T05:47:08.905Z,4.90
2023-05-12T05:49:12.884Z,2.92
2023-05-12T05:51:15.536Z,4.10
2023-05-12T05:53:18.567Z,3.65
2023-05-12T05:55:21.536Z,3.58
2023-05-12T05:57:24.455Z,2.78
2023-05-12T05:59:27.150Z,3.72
2023-05-12T06:01:29.818Z,4.03
2023-05-12T06:03:32.705Z,3.97
2023-05-12T06:05:36.836Z,3.80
2023-05-12T06:07:39.492Z,3.30
2023-05-12T06:09:42.486Z,3.15
2023-05-12T06:11:45.170Z,4.38
2023-05-12T06:13:47.706Z,4.80
2023-05-12T06:15:50.917Z,3.28
2023-05-12T06:17:53.553Z,5.25
2023-05-12T06:19:56.140Z,2.88
2023-05-12T06:22:00.155Z,4.03
2023-05-12T06:24:03.628Z,2.90
2023-05-12T06:26:07.733Z,4.50
2023-05-12T06:28:10.407Z,2.92
2023-05-12T06:30:15.851Z,3.08
2023-05-12T06:32:19.106Z,4.15
2023-05-12T06:34:21.802Z,4.55
2023-05-12T06:36:24.456Z,3.33
2023-05-12T06:38:28.513Z,4.63
2023-05-12T06:40:31.274Z,3.55
2023-05-12T06:42:33.838Z,2.83
2023-05-12T06:44:36.709Z,3.75
2023-05-12T06:46:39.509Z,3.40
2023-05-12T06:48:42.488Z,4.57
2023-05-12T06:50:45.046Z,5.22
2023-05-12T06:52:47.767Z,3.35
2023-05-12T06:54:51.745Z,3.33
2023-05-12T06:56:54.399Z,2.92
2023-05-12T06:59:00.918Z,4.25
2023-05-12T07:01:03.674Z,3.67
2023-05-12T07:03:10.014Z,4.55
2023-05-12T07:05:13.280Z,4.55
2023-05-12T07:07:15.951Z,5.07
2023-05-12T07:09:19.912Z,3.97
2023-05-12T07:11:23.943Z,3.55
2023-05-12T07:13:26.964Z,5.13
2023-05-12T07:15:31.917Z,4.15
2023-05-12T07:17:35.410Z,5.72
2023-05-12T07:19:39.636Z,2.25
2023-05-12T07:21:42.236Z,5.82
2023-05-12T07:23:44.865Z,4.63
2023-05-12T07:25:47.629Z,4.85
2023-05-12T07:27:51.612Z,5.68
2023-05-12T07:29:54.351Z,6.22
2023-05-12T07:31:57.528Z,4.22
2023-05-12T07:34:00.173Z,4.03
2023-05-12T07:36:02.841Z,3.08
2023-05-12T07:38:05.426Z,7.25
2023-05-12T07:40:08.793Z,4.75
2023-05-12T07:42:11.512Z,5.38
2023-05-12T07:44:16.330Z,3.60
2023-05-12T07:46:18.977Z,3.50
2023-05-12T07:48:21.632Z,2.88
2023-05-12T07:50:24.335Z,5.95
2023-05-12T07:52:27.229Z,2.38
2023-05-12T07:54:30.001Z,3.40
2023-05-12T07:56:32.675Z,4.15
2023-05-12T07:58:35.459Z,3.63
2023-05-12T08:00:39.585Z,4.55
2023-05-12T08:02:42.606Z,4.60
2023-05-12T08:04:45.440Z,2.30
2023-05-12T08:06:48.019Z,2.55
2023-05-12T08:08:50.809Z,3.83
2023-05-12T08:10:53.474Z,5.28
2023-05-12T08:12:56.062Z,5.35
2023-05-12T08:14:58.907Z,5.25
2023-05-12T08:17:02.939Z,5.63
2023-05-12T08:19:05.650Z,7.40
2023-05-12T08:21:08.640Z,7.07
2023-05-12T08:23:11.825Z,4.60
2023-05-12T08:25:14.658Z,6.30
2023-05-12T08:27:17.301Z,5.53
2023-05-12T08:29:19.948Z,6.32
2023-05-12T08:31:22.710Z,6.03
2023-05-12T08:33:26.692Z,5.57
2023-05-12T08:35:29.295Z,4.03
2023-05-12T08:37:34.307Z,5.85
2023-05-12T08:39:37.938Z,4.68
2023-05-12T08:41:43.768Z,4.45
2023-05-12T08:43:46.932Z,4.97
2023-05-12T08:45:50.023Z,7.47
2023-05-12T08:47:54.253Z,3.72
2023-05-12T08:50:00.559Z,5.13
2023-05-12T08:52:03.829Z,5.28
2023-05-12T08:54:09.453Z,7.72
2023-05-12T08:58:25.280Z,5.90
2023-05-12T09:00:37.395Z,7.43
2023-05-12T09:02:52.244Z,7.88
2023-05-12T09:04:57.088Z,5.85
2023-05-12T09:07:01.070Z,5.75
2023-05-12T09:09:03.915Z,5.50
2023-05-12T09:11:06.896Z,5.15
2023-05-12T09:13:13.485Z,4.97
2023-05-12T09:15:19.829Z,6.63
2023-05-12T09:17:22.692Z,5.38
2023-05-12T09:19:25.468Z,5.18
2023-05-12T09:21:28.615Z,6.93
2023-05-12T09:23:32.532Z,8.50
2023-05-12T09:25:36.598Z,4.68
2023-05-12T09:27:39.301Z,6.82
2023-05-12T09:29:58.642Z,9.88
2023-05-12T09:32:02.977Z,6.30
2023-05-12T09:34:08.222Z,4.50
2023-05-12T09:36:11.040Z,5.30
2023-05-12T09:38:14.748Z,4.28
2023-05-12T09:40:19.443Z,4.13
2023-05-12T09:42:22.513Z,5.72
2023-05-12T09:44:25.928Z,4.72
2023-05-12T09:46:28.639Z,3.50
2023-05-12T09:48:31.481Z,5.63
2023-05-12T09:50:44.361Z,5.07
2023-05-12T09:52:51.260Z,5.15
2023-05-12T09:54:53.953Z,4.88
2023-05-12T09:56:58.898Z,3.92
2023-05-12T09:59:04.736Z,4.25
2023-05-12T10:01:21.680Z,6.32
2023-05-12T10:03:26.777Z,4.38
2023-05-12T10:05:30.145Z,5.13
2023-05-12T10:07:33.606Z,3.20
2023-05-12T10:09:39.293Z,9.50
2023-05-12T10:11:42.723Z,4.13
2023-05-12T10:13:47.434Z,4.20
2023-05-12T10:15:50.911Z,7.50
2023-05-12T10:17:55.319Z,4.88
2023-05-12T10:19:59.072Z,4.30
2023-05-12T10:22:02.163Z,4.65
2023-05-12T10:24:04.981Z,4.50
2023-05-12T10:26:09.199Z,6.10
2023-05-12T10:28:12.075Z,4.68
2023-05-12T10:30:19.631Z,5.50
2023-05-12T10:32:22.488Z,7.47
2023-05-12T10:34:30.397Z,3.45
2023-05-12T10:36:33.012Z,4.97
2023-05-12T10:38:38.668Z,4.50
2023-05-12T10:40:52.046Z,2.78
2023-05-12T10:42:58.714Z,3.00
2023-05-12T10:45:02.608Z,3.78
2023-05-12T10:47:15.213Z,2.30
2023-05-12T10:49:20.031Z,4.82
2023-05-12T10:51:23.815Z,3.28
2023-05-12T10:53:38.094Z,4.38
2023-05-12T10:55:52.189Z,3.20
2023-05-12T10:57:55.535Z,4.82
2023-05-12T10:59:59.915Z,11.82
2023-05-12T11:02:06.208Z,7.28
2023-05-12T11:04:15.406Z,2.25
2023-05-12T11:06:20.236Z,6.53
2023-05-12T11:08:24.774Z,6.72
2023-05-12T11:10:30.825Z,3.78
2023-05-12T11:12:35.373Z,3.20
2023-05-12T11:14:39.096Z,4.00
2023-05-12T11:16:44.675Z,5.72
2023-05-12T11:18:48.620Z,2.97
2023-05-12T11:20:52.585Z,3.20
2023-05-12T11:22:55.315Z,5.28
2023-05-12T11:24:57.967Z,3.88
2023-05-12T11:27:00.791Z,8.32
2023-05-12T11:29:04.622Z,12.20
2023-05-12T11:31:07.241Z,11.27
2023-05-12T11:33:10.028Z,9.38
2023-05-12T11:35:13.473Z,6.00
2023-05-12T11:37:21.150Z,7.07
2023-05-12T11:39:24.928Z,4.82
2023-05-12T11:41:27.923Z,5.68
2023-05-12T11:43:30.591Z,5.40
2023-05-12T11:45:34.077Z,7.95
2023-05-12T11:47:37.108Z,6.45
2023-05-12T11:49:47.076Z,6.88
2023-05-12T11:51:51.989Z,6.25
2023-05-12T11:53:56.637Z,4.97
2023-05-12T11:55:59.290Z,4.60
2023-05-12T11:58:03.005Z,5.55
2023-05-12T12:00:07.764Z,4.07
2023-05-12T12:02:20.853Z,5.28
2023-05-12T12:04:36.680Z,4.13
2023-05-12T12:06:44.362Z,6.88
2023-05-12T12:08:53.580Z,3.80
2023-05-12T12:10:57.815Z,7.68
2023-05-12T12:13:01.130Z,6.78
2023-05-12T12:15:04.483Z,6.93
2023-05-12T12:17:07.159Z,10.55
2023-05-12T12:19:09.889Z,14.77
2023-05-12T12:21:15.338Z,6.18
2023-05-12T12:23:18.334Z,12.38
2023-05-12T12:25:21.421Z,10.68
2023-05-12T12:27:25.521Z,5.55
2023-05-12T12:29:28.451Z,10.20
2023-05-12T12:31:31.692Z,10.95
2023-05-12T12:33:34.359Z,9.48
2023-05-12T12:35:37.057Z,11.05
2023-05-12T12:37:40.248Z,8.38
2023-05-12T12:39:42.948Z,9.20
2023-05-12T12:41:50.817Z,7.65
2023-05-12T12:43:54.805Z,14.23
2023-05-12T12:45:57.523Z,12.63
2023-05-12T12:48:00.189Z,12.00
2023-05-12T12:50:03.591Z,11.98
2023-05-12T12:52:06.947Z,12.30
2023-05-12T12:54:09.600Z,12.80
2023-05-12T12:56:12.757Z,6.38
2023-05-12T12:58:15.541Z,10.45
2023-05-12T13:00:20.139Z,9.40
2023-05-12T13:02:22.918Z,5.85
2023-05-12T13:04:26.376Z,6.80
2023-05-12T13:06:29.203Z,6.22
2023-05-12T13:08:32.100Z,5.05
2023-05-12T13:10:34.777Z,7.00
2023-05-12T13:12:37.381Z,9.75
2023-05-12T13:14:40.044Z,20.23
2023-05-12T13:16:44.319Z,19.00
2023-05-12T13:18:47.021Z,12.13
2023-05-12T13:20:49.660Z,13.23
2023-05-12T13:22:52.268Z,7.70
2023-05-12T13:24:55.114Z,7.65
2023-05-12T13:26:58.174Z,5.43
2023-05-12T13:29:00.869Z,9.45
2023-05-12T13:31:03.617Z,19.42
2023-05-12T13:33:07.563Z,13.60
2023-05-12T13:35:10.421Z,13.20
2023-05-12T13:37:13.018Z,11.25
2023-05-12T13:39:18.370Z,8.18
2023-05-12T13:41:22.176Z,8.13
2023-05-12T13:43:24.744Z,3.53
2023-05-12T13:45:27.530Z,5.88
2023-05-12T13:47:30.205Z,5.80
2023-05-12T13:49:34.315Z,4.82
2023-05-12T13:51:37.259Z,2.45
2023-05-12T13:53:40.134Z,3.70
2023-05-12T13:55:42.686Z,5.03
2023-05-12T13:57:45.329Z,5.55
2023-05-12T13:59:47.871Z,4.80
2023-05-12T14:01:50.588Z,3.88
2023-05-12T14:03:53.376Z,6.13
2023-05-12T14:05:57.445Z,4.90
2023-05-12T14:08:00.172Z,6.82
2023-05-12T14:10:02.930Z,7.40
2023-05-12T14:12:06.577Z,7.13
2023-05-12T14:14:09.202Z,8.57
2023-05-12T14:16:13.872Z,9.43
2023-05-12T14:18:16.608Z,6.97
2023-05-12T14:20:19.646Z,8.27
2023-05-12T14:22:26.452Z,9.00
2023-05-12T14:24:30.253Z,12.75
2023-05-12T14:26:32.978Z,7.10
2023-05-12T14:28:35.704Z,9.40
2023-05-12T14:30:38.507Z,7.38
2023-05-12T14:32:41.566Z,6.82
2023-05-12T14:34:44.351Z,47.42
2023-05-12T14:36:47.122Z,17.52
2023-05-12T14:38:51.005Z,13.65
2023-05-12T14:40:53.565Z,12.18
2023-05-12T14:42:56.268Z,7.10
2023-05-12T14:44:59.053Z,14.68
2023-05-12T14:47:02.103Z,13.52
2023-05-12T14:49:10.520Z,11.68
2023-05-12T14:51:13.140Z,6.22
2023-05-12T14:53:15.715Z,5.70
2023-05-12T14:55:19.851Z,7.07
2023-05-12T14:57:22.919Z,36.92
2023-05-12T14:59:25.569Z,17.05
2023-05-12T15:01:28.698Z,5.80
2023-05-12T15:03:31.401Z,6.50
2023-05-12T15:05:52.875Z,5.28
2023-05-12T15:07:56.925Z,2.28
2023-05-12T15:09:59.564Z,3.88
2023-05-12T15:12:04.005Z,3.83
2023-05-12T15:14:07.218Z,3.58
2023-05-12T15:16:10.494Z,4.28
2023-05-12T15:18:13.192Z,10.60
2023-05-12T15:20:16.204Z,12.23
2023-05-12T15:22:19.190Z,9.30
2023-05-12T15:24:22.119Z,6.88
2023-05-12T15:26:32.721Z,4.80
2023-05-12T15:28:38.285Z,5.78
2023-05-12T15:30:40.915Z,6.20
2023-05-12T15:32:43.941Z,7.68
2023-05-12T15:34:46.724Z,5.43
2023-05-12T15:36:50.808Z,4.43
2023-05-12T15:38:53.815Z,11.30
2023-05-12T15:40:56.514Z,38.33
2023-05-12T15:43:00.596Z,62.97
2023-05-12T15:45:05.217Z,62.92
2023-05-12T15:47:07.961Z,68.32
2023-05-12T15:49:10.811Z,45.67
2023-05-12T15:51:13.665Z,30.42
2023-05-12T15:53:16.357Z,24.13
2023-05-12T15:55:19.365Z,17.80
2023-05-12T15:57:22.305Z,11.77
2023-05-12T15:59:24.895Z,8.23
2023-05-12T16:01:29.015Z,6.82
2023-05-12T16:03:31.745Z,5.68
2023-05-12T16:05:37.876Z,4.60
2023-05-12T16:07:40.476Z,5.43
2023-05-12T16:09:43.024Z,3.83
2023-05-12T16:11:45.666Z,2.03
2023-05-12T16:13:48.298Z,4.15
2023-05-12T16:15:50.990Z,5.25
2023-05-12T16:17:54.996Z,4.72
2023-05-12T16:19:57.813Z,148.82
2023-05-12T16:22:00.634Z,128.68
2023-05-12T16:24:03.872Z,81.65
2023-05-12T16:26:06.837Z,49.92
2023-05-12T16:28:09.472Z,37.17
2023-05-12T16:30:13.377Z,28.52
2023-05-12T16:32:17.030Z,18.85
2023-05-12T16:34:21.176Z,13.35
2023-05-12T16:36:24.614Z,7.82
2023-05-12T16:38:27.648Z,8.63
2023-05-12T16:40:30.430Z,7.28
2023-05-12T16:42:33.114Z,4.30
2023-05-12T16:44:35.764Z,6.43
2023-05-12T16:46:41.302Z,4.43
2023-05-12T16:48:44.281Z,2.22
2023-05-12T16:50:48.322Z,4.00
2023-05-12T16:52:51.993Z,2.10
2023-05-12T16:54:56.434Z,1.52
2023-05-12T16:56:59.132Z,4.32
2023-05-12T16:59:02.113Z,1.80
2023-05-12T17:01:05.441Z,4.18
2023-05-12T17:03:08.833Z,1.85
2023-05-12T17:05:11.677Z,2.28
2023-05-12T17:07:15.649Z,2.28
2023-05-12T17:09:19.038Z,1.52
2023-05-12T17:11:21.688Z,2.58
2023-05-12T17:13:24.351Z,2.72
2023-05-12T17:15:27.563Z,5.18
2023-05-12T17:17:30.732Z,10.18
2023-05-12T17:19:34.391Z,3.55
2023-05-12T17:21:37.218Z,1.42
2023-05-12T17:23:41.839Z,3.38
2023-05-12T17:25:44.549Z,1.55
2023-05-12T17:27:48.041Z,1.30
2023-05-12T17:29:50.736Z,3.30
2023-05-12T17:31:53.443Z,1.27
2023-05-12T17:33:56.126Z,0.95
2023-05-12T17:36:11.485Z,1.83
2023-05-12T17:38:15.818Z,3.20
2023-05-12T17:40:19.745Z,2.63
2023-05-12T17:42:22.472Z,1.73
2023-05-12T17:44:25.178Z,3.75
2023-05-12T17:46:27.940Z,6.10
2023-05-12T17:48:33.082Z,1.58
2023-05-12T17:50:35.856Z,5.80
2023-05-12T17:52:39.440Z,1.83
2023-05-12T17:54:42.064Z,3.75
2023-05-12T17:56:47.349Z,3.42
2023-05-12T17:58:50.683Z,1.92
2023-05-12T18:00:53.621Z,2.20
2023-05-12T18:02:56.864Z,3.92
2023-05-12T18:04:59.849Z,4.18
2023-05-12T18:07:02.860Z,3.30
2023-05-12T18:09:05.852Z,4.50
2023-05-12T18:11:08.489Z,4.30
2023-05-12T18:13:13.040Z,3.70
2023-05-12T18:15:19.891Z,4.95
2023-05-12T18:17:23.114Z,2.63
2023-05-12T18:19:27.110Z,4.25
2023-05-12T18:21:29.915Z,3.35
2023-05-12T18:23:32.676Z,2.70
2023-05-12T18:25:35.299Z,2.67
2023-05-12T18:27:37.867Z,3.63
2023-05-12T18:29:42.011Z,5.57
2023-05-12T18:31:44.772Z,7.55
2023-05-12T18:33:47.818Z,5.40
2023-05-12T18:35:50.461Z,5.32
2023-05-12T18:37:53.165Z,4.72
2023-05-12T18:39:56.023Z,5.40
2023-05-12T18:41:59.147Z,4.13
2023-05-12T18:44:01.898Z,3.88
2023-05-12T18:46:06.015Z,3.00
2023-05-12T18:48:08.740Z,3.17
2023-05-12T18:50:11.933Z,2.70
2023-05-12T18:52:14.610Z,2.35
2023-05-12T18:54:17.346Z,4.30
2023-05-12T18:56:20.186Z,3.60
2023-05-12T18:58:22.844Z,2.65
2023-05-12T19:00:27.596Z,2.67
2023-05-12T19:02:31.663Z,2.05
2023-05-12T19:04:34.322Z,0.80
2023-05-12T19:06:36.928Z,1.30
2023-05-12T19:08:39.482Z,2.58
2023-05-12T19:10:42.075Z,1.90
2023-05-12T19:12:44.713Z,1.08
2023-05-12T19:14:47.331Z,3.08
2023-05-12T19:16:50.030Z,2.03
2023-05-12T19:18:54.304Z,2.25
2023-05-12T19:20:57.032Z,1.05
2023-05-12T19:23:00.459Z,1.90
2023-05-12T19:25:04.093Z,1.02
2023-05-12T19:27:07.427Z,1.02
2023-05-12T19:29:11.571Z,1.65
2023-05-12T19:31:14.406Z,2.38
2023-05-12T19:33:17.477Z,1.83
2023-05-12T19:35:22.581Z,2.47
2023-05-12T19:37:27.228Z,1.60
2023-05-12T19:39:30.236Z,0.88
2023-05-12T19:41:32.876Z,1.77
2023-05-12T19:43:35.504Z,0.88
2023-05-12T19:45:38.139Z,1.60
2023-05-12T19:47:41.032Z,2.13
2023-05-12T19:49:43.739Z,1.38
2023-05-12T19:51:48.787Z,1.55
2023-05-12T19:53:51.439Z,1.15
2023-05-12T19:55:54.304Z,0.85
2023-05-12T19:57:57.573Z,1.65
2023-05-12T20:00:00.228Z,1.10
2023-05-12T20:02:03.147Z,2.10
2023-05-12T20:04:05.875Z,1.42
2023-05-12T20:06:08.474Z,0.80
2023-05-12T20:08:12.460Z,3.20
2023-05-12T20:10:15.548Z,1.75
2023-05-12T20:12:18.154Z,1.55
2023-05-12T20:14:20.817Z,1.98
2023-05-12T20:16:23.763Z,1.60
2023-05-12T20:18:27.625Z,0.95
2023-05-12T20:20:30.349Z,1.05
2023-05-12T20:22:33.863Z,1.05
2023-05-12T20:24:38.202Z,1.45
2023-05-12T20:26:40.781Z,1.60
2023-05-12T20:28:43.363Z,1.27
2023-05-12T20:30:46.047Z,1.73
2023-05-12T20:32:50.578Z,1.63
2023-05-12T20:34:53.206Z,1.40
2023-05-12T20:36:55.870Z,1.60
2023-05-12T20:38:58.779Z,1.73
2023-05-12T20:41:06.248Z,1.67
2023-05-12T20:43:09.263Z,2.22
2023-05-12T20:45:12.329Z,1.35
2023-05-12T20:47:14.950Z,2.08
2023-05-12T20:49:17.892Z,2.67
2023-05-12T20:51:20.840Z,0.80
2023-05-12T20:53:23.472Z,1.95
2023-05-12T20:55:26.802Z,2.92
2023-05-12T20:57:32.226Z,2.38
2023-05-12T20:59:35.386Z,1.90
2023-05-12T21:01:39.024Z,2.17
2023-05-12T21:03:42.070Z,2.13
2023-05-12T21:05:47.641Z,2.10
2023-05-12T21:07:50.297Z,1.83
2023-05-12T21:09:53.067Z,2.08
2023-05-12T21:11:55.660Z,1.73
2023-05-12T21:14:00.446Z,2.83
2023-05-12T21:16:03.994Z,3.72
2023-05-12T21:18:07.082Z,2.20
2023-05-12T21:20:10.863Z,1.90
2023-05-12T21:22:13.816Z,1.65
2023-05-12T21:24:21.327Z,2.15
2023-05-12T21:26:23.982Z,2.05
2023-05-12T21:28:26.711Z,2.45
2023-05-12T21:30:30.829Z,3.30
2023-05-12T21:32:33.543Z,2.28
2023-05-12T21:34:36.725Z,1.85
2023-05-12T21:36:39.536Z,1.77
2023-05-12T21:38:42.147Z,1.65
2023-05-12T21:40:44.793Z,3.13
2023-05-12T21:42:47.458Z,2.30
2023-05-12T21:44:50.721Z,1.77
2023-05-12T21:46:54.659Z,2.50
2023-05-12T21:48:57.962Z,1.80
2023-05-12T21:51:00.828Z,1.92
2023-05-12T21:53:03.695Z,2.22
2023-05-12T21:55:06.692Z,2.13
2023-05-12T21:57:09.363Z,2.50
2023-05-12T21:59:12.616Z,2.10
2023-05-12T22:01:15.812Z,2.00
2023-05-12T22:03:20.411Z,2.20
2023-05-12T22:05:23.614Z,2.20
2023-05-12T22:07:26.224Z,2.05
2023-05-12T22:09:31.100Z,1.88
2023-05-12T22:11:34.249Z,1.88
2023-05-12T22:13:37.063Z,1.88
2023-05-12T22:15:39.891Z,2.28
2023-05-12T22:17:43.036Z,1.05
2023-05-12T22:19:47.473Z,2.25
2023-05-12T22:21:50.435Z,1.85
2023-05-12T22:23:53.110Z,1.55
2023-05-12T22:25:55.928Z,2.17
2023-05-12T22:27:58.729Z,1.88
2023-05-12T22:30:01.381Z,1.08
2023-05-12T22:32:03.997Z,1.75
2023-05-12T22:34:06.560Z,3.13
2023-05-12T22:36:10.987Z,1.48
2023-05-12T22:38:13.552Z,1.40
2023-05-12T22:40:16.225Z,1.40
2023-05-12T22:42:18.870Z,1.45
2023-05-12T22:44:21.625Z,2.10
2023-05-12T22:46:24.271Z,2.10
2023-05-12T22:48:27.333Z,1.50
2023-05-12T22:50:29.967Z,1.17
2023-05-12T22:52:33.933Z,1.80
2023-05-12T22:54:36.615Z,2.90
2023-05-12T22:56:39.297Z,1.50
2023-05-12T22:58:42.092Z,1.80
2023-05-12T23:00:44.734Z,1.70
2023-05-12T23:02:47.542Z,1.52
2023-05-12T23:04:50.388Z,2.35
2023-05-12T23:06:52.940Z,1.98
2023-05-12T23:08:56.924Z,2.22
2023-05-12T23:10:59.652Z,1.65
2023-05-12T23:13:02.399Z,2.53
2023-05-12T23:15:05.369Z,1.80
2023-05-12T23:17:08.067Z,0.90
2023-05-12T23:19:11.028Z,2.10
2023-05-12T23:21:13.798Z,2.75
2023-05-12T23:23:16.387Z,1.65
2023-05-12T23:25:20.572Z,1.65
2023-05-12T23:27:23.261Z,1.63
2023-05-12T23:29:25.962Z,2.17
2023-05-12T23:31:28.555Z,2.03
2023-05-12T23:33:31.840Z,1.90
2023-05-12T23:35:34.630Z,2.30
2023-05-12T23:37:37.299Z,2.70
2023-05-12T23:39:39.895Z,1.40
2023-05-12T23:41:45.470Z,1.15
2023-05-12T23:43:48.275Z,1.50
2023-05-12T23:45:51.196Z,2.38
2023-05-12T23:47:53.968Z,1.75
2023-05-12T23:49:56.646Z,1.08
2023-05-12T23:51:59.249Z,1.40
2023-05-12T23:54:01.949Z,1.90
2023-05-12T23:56:04.563Z,1.85
2023-05-12T23:58:10.678Z,2.90
